createdAt,value
2023-05-19T00:00:39.079Z,97052.56
2023-05-19T00:02:44.010Z,97050.13
2023-05-19T00:04:48.181Z,97049.91
2023-05-19T00:06:52.207Z,97049.91
2023-05-19T00:08:59.018Z,97046.66
2023-05-19T00:11:02.644Z,97052.44
2023-05-19T00:13:06.077Z,97054.28
2023-05-19T00:15:11.880Z,97043.84
2023-05-19T00:17:17.004Z,97045.47
2023-05-19T00:19:20.059Z,97048.72
2023-05-19T00:21:23.020Z,97046.66
2023-05-19T00:23:26.024Z,97047.09
2023-05-19T00:25:28.927Z,97042.22
2023-05-19T00:27:31.823Z,97036.88
2023-05-19T00:29:34.945Z,97034.81
2023-05-19T00:31:39.128Z,97032.94
2023-05-19T00:33:42.143Z,97031.09
2023-05-19T00:35:45.025Z,97032.13
2023-05-19T00:37:48.747Z,97027.84
2023-05-19T00:39:51.501Z,97031.53
2023-05-19T00:41:54.398Z,97033.19
2023-05-19T00:43:57.229Z,97031.69
2023-05-19T00:46:00.094Z,97030.06
2023-05-19T00:48:04.461Z,97024.16
2023-05-19T00:50:08.175Z,97030.50
2023-05-19T00:52:11.136Z,97034.81
2023-05-19T00:54:14.025Z,97032.13
2023-05-19T00:56:17.874Z,97031.09
2023-05-19T00:58:20.880Z,97020.88
2023-05-19T01:00:24.482Z,97023.34
2023-05-19T01:02:29.679Z,97038.50
2023-05-19T01:04:37.287Z,97031.78
2023-05-19T01:06:40.235Z,97033.63
2023-05-19T01:08:43.017Z,97023.97
2023-05-19T01:10:45.775Z,97030.34
2023-05-19T01:12:49.415Z,97019.69
2023-05-19T01:14:52.419Z,97020.72
2023-05-19T01:17:05.361Z,97025.00
2023-05-19T01:19:25.594Z,97026.63
2023-05-19T01:22:00.943Z,97022.34
2023-05-19T01:24:15.188Z,97024.38
2023-05-19T01:26:46.283Z,97029.72
2023-05-19T01:29:24.792Z,97025.41
2023-05-19T01:31:29.561Z,97026.69
2023-05-19T01:33:34.044Z,97024.25
2023-05-19T01:35:38.720Z,97029.78
2023-05-19T01:37:43.499Z,97027.31
2023-05-19T01:39:47.429Z,97030.22
2023-05-19T01:41:51.920Z,97034.50
2023-05-19T01:43:54.930Z,97032.66
2023-05-19T01:45:59.105Z,97032.66
2023-05-19T01:48:06.336Z,97027.75
2023-05-19T01:50:11.171Z,97029.97
2023-05-19T01:52:14.076Z,97029.16
2023-05-19T01:54:16.886Z,97027.53
2023-05-19T01:56:30.033Z,97031.69
2023-05-19T01:58:42.960Z,97021.84
2023-05-19T02:00:54.212Z,97019.41
2023-05-19T02:03:07.426Z,97022.88
2023-05-19T02:05:18.400Z,97021.25
2023-05-19T02:07:32.445Z,97026.81
2023-05-19T02:09:40.775Z,97026.56
2023-05-19T02:11:53.166Z,97024.94
2023-05-19T02:13:58.209Z,97024.72
2023-05-19T02:16:06.404Z,97023.69
2023-05-19T02:18:11.571Z,97023.09
2023-05-19T02:20:14.839Z,97023.91
2023-05-19T02:22:17.704Z,97013.25
2023-05-19T02:24:22.952Z,97011.63
2023-05-19T02:26:26.114Z,97023.91
2023-05-19T02:28:28.933Z,97015.91
2023-05-19T02:30:32.767Z,97010.59
2023-05-19T02:32:36.383Z,97020.22
2023-05-19T02:34:42.163Z,97014.88
2023-05-19T02:36:45.389Z,97017.56
2023-05-19T02:38:48.217Z,97020.22
2023-05-19T02:40:52.580Z,97020.22
2023-05-19T02:42:55.618Z,97024.94
2023-05-19T02:44:58.458Z,97018.22
2023-05-19T02:47:01.674Z,97017.38
2023-05-19T02:49:04.477Z,97019.44
2023-05-19T02:51:08.589Z,97019.44
2023-05-19T02:53:11.457Z,97013.31
2023-05-19T02:55:17.157Z,97016.19
2023-05-19T02:57:21.408Z,97012.50
2023-05-19T02:59:25.733Z,97019.22
2023-05-19T03:01:27.813Z,97006.94
2023-05-19T03:03:31.059Z,97012.50
2023-05-19T03:05:33.954Z,96999.97
2023-05-19T03:07:38.332Z,97007.75
2023-05-19T03:09:41.360Z,97009.81
2023-05-19T03:11:44.156Z,97010.84
2023-05-19T03:13:47.021Z,97014.34
2023-05-19T03:15:51.031Z,97005.31
2023-05-19T03:17:54.146Z,97003.47
2023-05-19T03:19:57.236Z,97007.16
2023-05-19T03:22:00.067Z,97003.47
2023-05-19T03:24:04.528Z,96991.78
2023-05-19T03:26:07.400Z,96996.06
2023-05-19T03:28:10.248Z,96991.78
2023-05-19T03:30:14.375Z,96994.44
2023-05-19T03:32:17.465Z,96990.94
2023-05-19T03:34:22.320Z,96991.78
2023-05-19T03:36:26.179Z,96992.81
2023-05-19T03:38:28.970Z,96992.81
2023-05-19T03:40:33.350Z,96992.81
2023-05-19T03:42:36.322Z,96998.13
2023-05-19T03:44:39.273Z,96985.03
2023-05-19T03:46:42.191Z,96996.50
2023-05-19T03:48:45.046Z,97001.84
2023-05-19T03:50:48.593Z,97000.22
2023-05-19T03:52:51.474Z,97003.69
2023-05-19T03:54:54.477Z,97007.38
2023-05-19T03:56:59.195Z,97010.84
2023-05-19T03:59:01.979Z,97012.13
2023-05-19T04:01:04.855Z,97009.69
2023-05-19T04:03:08.245Z,97017.66
2023-05-19T04:05:11.637Z,97017.06
2023-05-19T04:07:14.502Z,97015.00
2023-05-19T04:09:17.756Z,97014.19
2023-05-19T04:11:21.480Z,97013.75
2023-05-19T04:13:25.666Z,97021.97
2023-05-19T04:15:30.148Z,97028.91
2023-05-19T04:17:33.117Z,97026.47
2023-05-19T04:19:35.962Z,97024.63
2023-05-19T04:21:38.969Z,97021.97
2023-05-19T04:23:41.771Z,97030.53
2023-05-19T04:25:44.727Z,97023.38
2023-05-19T04:27:48.558Z,97031.13
2023-05-19T04:29:52.921Z,97017.66
2023-05-19T04:31:55.865Z,97025.06
2023-05-19T04:33:58.816Z,97033.88
2023-05-19T04:36:08.475Z,97026.69
2023-05-19T04:38:12.054Z,97027.28
2023-05-19T04:40:15.763Z,97036.69
2023-05-19T04:42:19.324Z,97026.84
2023-05-19T04:44:22.235Z,97029.28
2023-05-19T04:46:29.713Z,97026.84
2023-05-19T04:48:35.806Z,97029.72
2023-05-19T04:50:42.087Z,97036.91
2023-05-19T04:52:45.836Z,97034.25
2023-05-19T04:54:48.771Z,97037.13
2023-05-19T04:56:51.562Z,97035.72
2023-05-19T04:58:54.888Z,97035.91
2023-05-19T05:00:57.775Z,97031.41
2023-05-19T05:03:05.180Z,97033.06
2023-05-19T05:05:09.521Z,97032.63
2023-05-19T05:07:12.618Z,97037.34
2023-05-19T05:09:15.583Z,97036.72
2023-05-19T05:11:19.089Z,97032.44
2023-05-19T05:13:23.753Z,97037.34
2023-05-19T05:15:28.826Z,97035.88
2023-05-19T05:17:32.463Z,97032.75
2023-05-19T05:19:37.401Z,97031.72
2023-05-19T05:21:41.486Z,97037.06
2023-05-19T05:23:45.022Z,97029.28
2023-05-19T05:25:48.808Z,97026.03
2023-05-19T05:27:51.821Z,97034.78
2023-05-19T05:29:56.053Z,97025.75
2023-05-19T05:32:01.718Z,97032.28
2023-05-19T05:34:04.636Z,97027.31
2023-05-19T05:36:11.213Z,97027.94
2023-05-19T05:38:14.087Z,97024.59
2023-05-19T05:40:17.245Z,97028.28
2023-05-19T05:42:20.327Z,97024.38
2023-05-19T05:44:23.137Z,97023.56
2023-05-19T05:46:25.906Z,97024.97
2023-05-19T05:48:29.652Z,97029.63
2023-05-19T05:50:33.337Z,97023.25
2023-05-19T05:52:38.620Z,97024.00
2023-05-19T05:54:42.071Z,97016.19
2023-05-19T05:56:45.808Z,97024.09
2023-05-19T05:58:49.447Z,97031.22
2023-05-19T06:00:57.620Z,97025.81
2023-05-19T06:03:00.666Z,97034.34
2023-05-19T06:05:03.628Z,97027.28
2023-05-19T06:07:06.529Z,97025.94
2023-05-19T06:09:10.727Z,97020.78
2023-05-19T06:11:13.598Z,97021.94
2023-05-19T06:13:22.324Z,97016.75
2023-05-19T06:15:25.392Z,97016.91
2023-05-19T06:17:28.240Z,97019.09
2023-05-19T06:19:31.774Z,97015.38
2023-05-19T06:21:34.654Z,97020.31
2023-05-19T06:23:37.850Z,97013.91
2023-05-19T06:25:42.190Z,97026.00
2023-05-19T06:27:45.055Z,97022.06
2023-05-19T06:29:47.839Z,97024.88
2023-05-19T06:31:50.729Z,97018.06
2023-05-19T06:33:53.702Z,97012.84
2023-05-19T06:35:56.797Z,97009.75
2023-05-19T06:37:59.887Z,97017.28
2023-05-19T06:40:02.764Z,97016.03
2023-05-19T06:42:07.187Z,97014.16
2023-05-19T06:44:10.188Z,97022.75
2023-05-19T06:46:13.200Z,97014.75
2023-05-19T06:48:16.279Z,97018.47
2023-05-19T06:50:19.623Z,97014.16
2023-05-19T06:52:22.649Z,97017.41
2023-05-19T06:54:25.489Z,97014.16
2023-05-19T06:56:28.566Z,97016.03
2023-05-19T06:58:33.168Z,97014.16
2023-05-19T07:00:36.140Z,97012.53
2023-05-19T07:02:39.282Z,97011.72
2023-05-19T07:04:42.935Z,97010.09
2023-05-19T07:06:45.725Z,97008.25
2023-05-19T07:08:48.757Z,97003.94
2023-05-19T07:10:52.082Z,97010.91
2023-05-19T07:12:54.905Z,97012.06
2023-05-19T07:14:59.329Z,97015.56
2023-05-19T07:17:02.096Z,97014.16
2023-05-19T07:19:05.027Z,97016.47
2023-05-19T07:21:08.521Z,97016.84
2023-05-19T07:23:11.443Z,97015.34
2023-05-19T07:25:14.315Z,97018.59
2023-05-19T07:27:17.417Z,97018.22
2023-05-19T07:29:20.333Z,97019.50
2023-05-19T07:31:24.543Z,97017.06
2023-05-19T07:33:27.837Z,97016.25
2023-05-19T07:35:30.850Z,97012.31
2023-05-19T07:37:33.814Z,97011.88
2023-05-19T07:39:36.998Z,97012.06
2023-05-19T07:41:39.829Z,97006.72
2023-05-19T07:43:43.671Z,97001.03
2023-05-19T07:45:46.598Z,97005.00
2023-05-19T07:47:51.095Z,97001.50
2023-05-19T07:49:53.986Z,96996.97
2023-05-19T07:51:57.066Z,96999.41
2023-05-19T07:53:59.855Z,97003.94
2023-05-19T07:56:02.618Z,96993.50
2023-05-19T07:58:05.506Z,96995.59
2023-05-19T08:00:11.851Z,96998.25
2023-05-19T08:02:14.853Z,96996.84
2023-05-19T08:04:19.246Z,96991.72
2023-05-19T08:06:22.450Z,96994.38
2023-05-19T08:08:25.325Z,96991.94
2023-05-19T08:10:28.154Z,96996.25
2023-05-19T08:12:31.326Z,96989.88
2023-05-19T08:14:34.897Z,96998.50
2023-05-19T08:16:37.777Z,96985.56
2023-05-19T08:18:40.581Z,96990.09
2023-05-19T08:20:46.264Z,96995.81
2023-05-19T08:22:49.209Z,96993.72
2023-05-19T08:24:52.149Z,96990.38
2023-05-19T08:26:56.328Z,96984.44
2023-05-19T08:28:59.209Z,96984.69
2023-05-19T08:31:02.116Z,96982.47
2023-05-19T08:33:05.166Z,96981.44
2023-05-19T08:35:09.062Z,96979.69
2023-05-19T08:37:13.339Z,96978.41
2023-05-19T08:39:17.540Z,96973.44
2023-05-19T08:41:21.639Z,96973.22
2023-05-19T08:43:24.477Z,96970.53
2023-05-19T08:45:28.167Z,96970.66
2023-05-19T08:47:31.329Z,96973.72
2023-05-19T08:49:41.501Z,96979.16
2023-05-19T08:51:55.505Z,96967.34
2023-05-19T08:54:05.655Z,96973.38
2023-05-19T08:56:12.865Z,96972.69
2023-05-19T08:58:20.278Z,96966.88
2023-05-19T09:00:24.422Z,96968.28
2023-05-19T09:02:28.481Z,96968.28
2023-05-19T09:04:32.061Z,96972.56
2023-05-19T09:06:34.912Z,96968.28
2023-05-19T09:08:38.107Z,96961.19
2023-05-19T09:10:42.202Z,96962.00
2023-05-19T09:12:47.665Z,96960.72
2023-05-19T09:14:50.477Z,96954.91
2023-05-19T09:16:53.356Z,96956.31
2023-05-19T09:18:57.154Z,96948.88
2023-05-19T09:21:02.397Z,96941.06
2023-05-19T09:23:05.592Z,96941.69
2023-05-19T09:25:19.101Z,96937.84
2023-05-19T09:27:24.428Z,96939.94
2023-05-19T09:29:27.212Z,96944.47
2023-05-19T09:31:33.668Z,96938.78
2023-05-19T09:33:37.698Z,96940.88
2023-05-19T09:35:40.564Z,96933.66
2023-05-19T09:37:43.753Z,96933.44
2023-05-19T09:39:49.250Z,96931.69
2023-05-19T09:41:52.814Z,96930.63
2023-05-19T09:43:57.413Z,96933.91
2023-05-19T09:46:05.857Z,96936.78
2023-05-19T09:48:09.026Z,96931.44
2023-05-19T09:50:14.695Z,96936.78
2023-05-19T09:52:18.188Z,96936.56
2023-05-19T09:54:23.026Z,96933.91
2023-05-19T09:56:26.598Z,96933.44
2023-05-19T09:58:34.633Z,96927.38
2023-05-19T10:00:39.679Z,96924.03
2023-05-19T10:02:45.031Z,96930.75
2023-05-19T10:04:49.318Z,96920.63
2023-05-19T10:06:54.367Z,96920.75
2023-05-19T10:08:57.487Z,96926.44
2023-05-19T10:11:01.195Z,96915.03
2023-05-19T10:13:05.058Z,96918.28
2023-05-19T10:15:11.390Z,96922.59
2023-05-19T10:17:15.978Z,96921.56
2023-05-19T10:19:22.728Z,96913.31
2023-05-19T10:21:25.776Z,96919.03
2023-05-19T10:23:28.748Z,96916.34
2023-05-19T10:25:33.385Z,96916.91
2023-05-19T10:27:40.120Z,96914.81
2023-05-19T10:29:50.061Z,96910.06
2023-05-19T10:31:55.338Z,96916.56
2023-05-19T10:34:15.165Z,96908.53
2023-05-19T10:36:35.403Z,96908.31
2023-05-19T10:38:44.028Z,96914.47
2023-05-19T10:40:58.610Z,96912.34
2023-05-19T10:43:16.832Z,96905.97
2023-05-19T10:45:23.834Z,96903.84
2023-05-19T10:47:27.194Z,96900.38
2023-05-19T10:49:36.143Z,96904.44
2023-05-19T10:51:39.095Z,96905.03
2023-05-19T10:53:46.616Z,96904.06
2023-05-19T10:55:53.603Z,96894.53
2023-05-19T10:57:57.706Z,96899.88
2023-05-19T11:00:01.335Z,96899.88
2023-05-19T11:02:08.481Z,96900.69
2023-05-19T11:04:12.367Z,96903.69
2023-05-19T11:06:26.210Z,96896.81
2023-05-19T11:08:33.597Z,96899.59
2023-05-19T11:10:36.200Z,96891.09
2023-05-19T11:12:44.228Z,96895.75
2023-05-19T11:14:47.216Z,96886.97
2023-05-19T11:16:51.401Z,96891.59
2023-05-19T11:18:55.545Z,96891.38
2023-05-19T11:21:02.276Z,96890.09
2023-05-19T11:23:11.279Z,96886.84
2023-05-19T11:25:14.244Z,96889.28
2023-05-19T11:27:23.870Z,96882.75
2023-05-19T11:29:26.696Z,96877.75
2023-05-19T11:31:31.191Z,96879.72
2023-05-19T11:33:34.741Z,96877.94
2023-05-19T11:35:38.023Z,96876.66
2023-05-19T11:37:42.783Z,96879.06
2023-05-19T11:39:48.246Z,96878.28
2023-05-19T11:41:52.389Z,96875.03
2023-05-19T11:43:55.218Z,96877.47
2023-05-19T11:45:58.113Z,96861.16
2023-05-19T11:48:03.100Z,96863.34
2023-05-19T11:50:06.782Z,96868.22
2023-05-19T11:52:09.859Z,96870.41
2023-05-19T11:54:13.445Z,96869.13
2023-05-19T11:56:17.649Z,96857.84
2023-05-19T11:58:27.122Z,96860.75
2023-05-19T12:00:31.317Z,96861.31
2023-05-19T12:02:34.404Z,96865.41
2023-05-19T12:04:37.502Z,96861.06
2023-05-19T12:06:40.441Z,96856.78
2023-05-19T12:08:44.156Z,96848.28
2023-05-19T12:10:50.357Z,96846.88
2023-05-19T12:12:55.139Z,96846.66
2023-05-19T12:14:58.334Z,96837.78
2023-05-19T12:17:11.255Z,96841.63
2023-05-19T12:19:14.381Z,96844.41
2023-05-19T12:21:17.417Z,96842.84
2023-05-19T12:23:20.620Z,96855.44
2023-05-19T12:25:24.350Z,96844.41
2023-05-19T12:27:29.067Z,96851.88
2023-05-19T12:29:34.559Z,96847.31
2023-05-19T12:31:37.996Z,96839.28
2023-05-19T12:33:41.061Z,96843.84
2023-05-19T12:35:44.505Z,96840.34
2023-05-19T12:37:49.098Z,96849.19
2023-05-19T12:39:52.069Z,96855.38
2023-05-19T12:42:01.855Z,96847.41
2023-05-19T12:44:15.830Z,96853.56
2023-05-19T12:46:20.544Z,96842.84
2023-05-19T12:48:23.958Z,96834.50
2023-05-19T12:50:31.503Z,96831.56
2023-05-19T12:52:38.010Z,96831.31
2023-05-19T12:54:40.974Z,96837.25
2023-05-19T12:56:51.332Z,96839.47
2023-05-19T12:58:55.830Z,96842.94
2023-05-19T13:01:01.111Z,96834.41
2023-05-19T13:03:07.109Z,96829.38
2023-05-19T13:05:10.272Z,96823.88
2023-05-19T13:07:13.567Z,96830.09
2023-05-19T13:09:17.282Z,96824.25
2023-05-19T13:11:20.117Z,96832.19
2023-05-19T13:13:22.949Z,96825.03
2023-05-19T13:15:27.066Z,96814.63
2023-05-19T13:17:30.011Z,96815.25
2023-05-19T13:19:34.226Z,96806.47
2023-05-19T13:21:37.034Z,96814.28
2023-05-19T13:23:39.960Z,96812.66
2023-05-19T13:25:43.509Z,96813.78
2023-05-19T13:27:47.174Z,96814.59
2023-05-19T13:29:50.049Z,96812.47
2023-05-19T13:31:52.877Z,96815.94
2023-05-19T13:33:55.654Z,96814.63
2023-05-19T13:36:00.014Z,96815.44
2023-05-19T13:38:04.224Z,96816.50
2023-05-19T13:40:08.113Z,96824.06
2023-05-19T13:42:11.107Z,96817.16
2023-05-19T13:44:13.982Z,96817.97
2023-05-19T13:46:16.833Z,96820.41
2023-05-19T13:48:21.679Z,96816.16
2023-05-19T13:50:24.611Z,96823.72
2023-05-19T13:52:58.339Z,96824.78
2023-05-19T13:54:54.398Z,96825.91
2023-05-19T13:56:57.386Z,96815.19
2023-05-19T13:59:00.331Z,96817.09
2023-05-19T14:01:03.343Z,96823.34
2023-05-19T14:03:06.886Z,96812.38
2023-05-19T14:05:10.055Z,96823.91
2023-05-19T14:07:13.057Z,96824.19
2023-05-19T14:09:17.567Z,96810.50
2023-05-19T14:11:21.597Z,96817.19
2023-05-19T14:13:33.464Z,96814.75
2023-05-19T14:15:38.437Z,96823.34
2023-05-19T14:17:41.639Z,96812.06
2023-05-19T14:19:44.624Z,96809.38
2023-05-19T14:21:47.401Z,96808.56
2023-05-19T14:23:50.253Z,96827.59
2023-05-19T14:25:54.561Z,96823.03
2023-05-19T14:27:57.387Z,96820.03
2023-05-19T14:30:00.180Z,96821.06
2023-05-19T14:32:06.501Z,96815.13
2023-05-19T14:34:09.514Z,96824.78
2023-05-19T14:36:12.406Z,96822.59
2023-05-19T14:38:15.263Z,96816.09
2023-05-19T14:40:18.260Z,96816.34
2023-05-19T14:42:22.456Z,96821.69
2023-05-19T14:44:25.466Z,96813.91
2023-05-19T14:46:28.515Z,96816.66
2023-05-19T14:48:31.671Z,96805.13
2023-05-19T14:50:34.831Z,96811.78
2023-05-19T14:52:39.065Z,96820.88
2023-05-19T14:54:42.057Z,96801.00
2023-05-19T14:56:45.358Z,96802.63
2023-05-19T14:58:51.762Z,96791.91
2023-05-19T15:00:54.846Z,96802.28
2023-05-19T15:02:57.704Z,96797.44
2023-05-19T15:05:00.935Z,96797.69
2023-05-19T15:09:10.716Z,96799.47
2023-05-19T15:11:13.572Z,96809.38
2023-05-19T15:13:18.728Z,96798.13
2023-05-19T15:15:22.990Z,96802.97
2023-05-19T15:17:25.924Z,96802.75
2023-05-19T15:19:28.837Z,96798.66
2023-05-19T15:21:31.861Z,96797.06
2023-05-19T15:23:34.726Z,96800.25
2023-05-19T15:25:38.363Z,96805.34
2023-05-19T15:27:41.322Z,96802.09
2023-05-19T15:29:44.129Z,96812.03
2023-05-19T15:31:51.131Z,96800.50
2023-05-19T15:33:53.963Z,96802.63
2023-05-19T15:35:58.241Z,96802.63
2023-05-19T15:38:06.059Z,96803.41
2023-05-19T15:40:10.151Z,96800.50
2023-05-19T15:42:12.959Z,96805.34
2023-05-19T15:44:15.704Z,96795.69
2023-05-19T15:46:19.882Z,96808.28
2023-05-19T15:48:24.377Z,96801.00
2023-05-19T15:50:27.317Z,96797.97
2023-05-19T15:52:30.192Z,96802.28
2023-05-19T15:54:33.110Z,96805.53
2023-05-19T15:56:35.856Z,96814.63
2023-05-19T15:58:38.739Z,96811.47
2023-05-19T16:00:41.614Z,96817.06
2023-05-19T16:02:44.591Z,96811.88
2023-05-19T16:04:49.168Z,96817.75
2023-05-19T16:06:52.008Z,96806.94
2023-05-19T16:08:54.804Z,96809.06
2023-05-19T16:10:57.737Z,96808.00
2023-05-19T16:13:00.679Z,96803.13
2023-05-19T16:15:03.587Z,96798.28
2023-05-19T16:17:11.423Z,96789.66
2023-05-19T16:19:14.329Z,96793.97
2023-05-19T16:21:18.589Z,96784.28
2023-05-19T16:23:21.731Z,96791.22
2023-05-19T16:25:24.968Z,96792.78
2023-05-19T16:27:27.993Z,96791.63
2023-05-19T16:29:30.890Z,96788.63
2023-05-19T16:31:33.755Z,96795.88
2023-05-19T16:33:36.624Z,96777.66
2023-05-19T16:35:40.015Z,96785.72
2023-05-19T16:37:44.433Z,96779.53
2023-05-19T16:39:48.284Z,96784.66
2023-05-19T16:41:51.139Z,96784.19
2023-05-19T16:43:54.019Z,96783.69
2023-05-19T16:45:57.045Z,96774.09
2023-05-19T16:48:00.081Z,96787.22
2023-05-19T16:50:03.415Z,96784.78
2023-05-19T16:52:06.235Z,96784.25
2023-05-19T16:54:10.460Z,96779.38
2023-05-19T16:56:13.238Z,96785.56
2023-05-19T16:58:16.023Z,96783.38
2023-05-19T17:00:19.353Z,96775.00
2023-05-19T17:02:22.415Z,96781.09
2023-05-19T17:04:25.567Z,96780.53
2023-05-19T17:06:28.563Z,96773.78
2023-05-19T17:08:31.327Z,96766.81
2023-05-19T17:10:36.007Z,96775.59
2023-05-19T17:12:39.107Z,96778.41
2023-05-19T17:14:43.419Z,96772.50
2023-05-19T17:16:46.546Z,96778.97
2023-05-19T17:18:49.413Z,96778.53
2023-05-19T17:20:52.257Z,96778.97
2023-05-19T17:22:55.278Z,96783.22
2023-05-19T17:24:58.485Z,96783.13
2023-05-19T17:27:02.691Z,96789.19
2023-05-19T17:29:05.913Z,96789.69
2023-05-19T17:31:12.291Z,96796.34
2023-05-19T17:33:15.513Z,96794.47
2023-05-19T17:35:18.616Z,96788.06
2023-05-19T17:37:23.511Z,96784.56
2023-05-19T17:39:26.306Z,96784.97
2023-05-19T17:41:29.111Z,96782.78
2023-05-19T17:43:33.330Z,96779.31
2023-05-19T17:45:36.190Z,96774.75
2023-05-19T17:47:39.314Z,96767.28
2023-05-19T17:49:42.521Z,96771.91
2023-05-19T17:51:45.906Z,96780.78
2023-05-19T17:53:49.374Z,96776.88
2023-05-19T17:55:54.268Z,96774.44
2023-05-19T17:57:57.767Z,96777.44
2023-05-19T18:00:03.725Z,96780.09
2023-05-19T18:02:07.433Z,96777.69
2023-05-19T18:04:11.787Z,96788.38
2023-05-19T18:06:17.286Z,96783.28
2023-05-19T18:08:20.768Z,96781.06
2023-05-19T18:10:26.823Z,96789.84
2023-05-19T18:12:29.822Z,96783.66
2023-05-19T18:14:32.775Z,96787.41
2023-05-19T18:16:37.142Z,96787.97
2023-05-19T18:18:43.347Z,96775.66
2023-05-19T18:20:46.653Z,96790.66
2023-05-19T18:22:49.546Z,96784.16
2023-05-19T18:24:52.872Z,96780.09
2023-05-19T18:26:55.813Z,96783.25
2023-05-19T18:29:02.523Z,96781.31
2023-05-19T18:31:07.528Z,96783.31
2023-05-19T18:33:12.025Z,96777.66
2023-05-19T18:35:16.605Z,96783.25
2023-05-19T18:37:19.499Z,96778.94
2023-05-19T18:39:23.782Z,96783.69
2023-05-19T18:41:27.141Z,96774.78
2023-05-19T18:43:32.432Z,96775.47
2023-05-19T18:45:35.577Z,96774.47
2023-05-19T18:47:38.468Z,96779.44
2023-05-19T18:49:43.125Z,96784.47
2023-05-19T18:51:48.456Z,96785.53
2023-05-19T18:53:51.287Z,96787.72
2023-05-19T18:55:54.066Z,96771.09
2023-05-19T18:57:56.968Z,96772.41
2023-05-19T19:00:01.987Z,96775.06
2023-05-19T19:02:04.879Z,96771.09
2023-05-19T19:04:07.849Z,96769.97
2023-05-19T19:06:12.078Z,96766.94
2023-05-19T19:08:14.878Z,96775.69
2023-05-19T19:10:19.250Z,96769.78
2023-05-19T19:12:22.123Z,96774.66
2023-05-19T19:14:25.019Z,96779.50
2023-05-19T19:16:28.133Z,96771.72
2023-05-19T19:18:31.111Z,96780.00
2023-05-19T19:20:34.250Z,96781.03
2023-05-19T19:22:38.701Z,96780.22
2023-05-19T19:24:43.015Z,96786.97
2023-05-19T19:26:46.077Z,96785.91
2023-05-19T19:28:48.957Z,96794.59
2023-05-19T19:30:51.834Z,96797.84
2023-05-19T19:32:56.844Z,96797.84
2023-05-19T19:34:59.949Z,96799.47
2023-05-19T19:37:02.838Z,96802.47
2023-05-19T19:39:07.162Z,96795.25
2023-05-19T19:41:10.238Z,96791.22
2023-05-19T19:43:15.368Z,96793.56
2023-05-19T19:45:19.516Z,96788.91
2023-05-19T19:47:22.809Z,96794.75
2023-05-19T19:49:26.024Z,96796.50
2023-05-19T19:51:28.955Z,96783.56
2023-05-19T19:53:33.032Z,96799.63
2023-05-19T19:55:37.166Z,96791.59
2023-05-19T19:57:39.949Z,96792.41
2023-05-19T19:59:42.989Z,96790.13
2023-05-19T20:01:46.001Z,96793.59
2023-05-19T20:03:49.012Z,96789.56
2023-05-19T20:05:52.174Z,96794.09
2023-05-19T20:07:54.977Z,96788.97
2023-05-19T20:09:57.798Z,96784.41
2023-05-19T20:12:01.991Z,96793.41
2023-05-19T20:14:05.139Z,96788.75
2023-05-19T20:16:07.958Z,96790.03
2023-05-19T20:18:10.889Z,96798.28
2023-05-19T20:20:14.602Z,96786.00
2023-05-19T20:22:17.370Z,96791.09
2023-05-19T20:24:20.485Z,96797.00
2023-05-19T20:26:23.570Z,96788.41
2023-05-19T20:28:27.754Z,96794.56
2023-05-19T20:30:30.829Z,96791.34
2023-05-19T20:32:33.743Z,96787.84
2023-05-19T20:34:36.652Z,96791.66
2023-05-19T20:36:39.700Z,96787.50
2023-05-19T20:38:42.788Z,96795.06
2023-05-19T20:40:45.919Z,96795.28
2023-05-19T20:42:48.911Z,96803.19
2023-05-19T20:44:53.128Z,96794.03
2023-05-19T20:46:56.507Z,96788.44
2023-05-19T20:48:59.659Z,96790.06
2023-05-19T20:51:02.620Z,96798.09
2023-05-19T20:53:07.288Z,96795.66
2023-05-19T20:55:10.524Z,96792.28
2023-05-19T20:57:13.705Z,96784.03
2023-05-19T20:59:16.602Z,96794.03
2023-05-19T21:01:21.156Z,96792.88
2023-05-19T21:03:24.591Z,96785.91
2023-05-19T21:05:27.402Z,96792.19
2023-05-19T21:07:30.322Z,96778.84
2023-05-19T21:09:33.074Z,96787.66
2023-05-19T21:11:35.934Z,96782.78
2023-05-19T21:13:39.647Z,96791.03
2023-05-19T21:15:42.716Z,96787.78
2023-05-19T21:17:49.053Z,96788.63
2023-05-19T21:19:56.516Z,96782.91
2023-05-19T21:21:59.310Z,96779.41
2023-05-19T21:24:02.137Z,96786.16
2023-05-19T21:26:05.952Z,96783.84
2023-05-19T21:28:09.832Z,96778.50
2023-05-19T21:30:13.881Z,96781.16
2023-05-19T21:32:16.618Z,96777.22
2023-05-19T21:34:20.776Z,96777.78
2023-05-19T21:36:23.522Z,96770.81
2023-05-19T21:38:26.523Z,96774.53
2023-05-19T21:40:29.410Z,96777.09
2023-05-19T21:42:32.181Z,96776.75
2023-05-19T21:44:35.067Z,96775.13
2023-05-19T21:46:38.021Z,96765.25
2023-05-19T21:48:41.009Z,96767.69
2023-05-19T21:50:45.508Z,96766.78
2023-05-19T21:52:48.503Z,96767.22
2023-05-19T21:54:52.001Z,96766.66
2023-05-19T21:56:55.125Z,96772.47
2023-05-19T21:58:58.060Z,96762.84
2023-05-19T22:01:01.518Z,96753.53
2023-05-19T22:03:04.645Z,96758.78
2023-05-19T22:05:08.337Z,96760.06
2023-05-19T22:07:12.613Z,96756.22
2023-05-19T22:09:15.634Z,96751.22
2023-05-19T22:11:18.906Z,96757.84
2023-05-19T22:13:22.192Z,96756.22
2023-05-19T22:15:27.389Z,96757.84
2023-05-19T22:17:30.420Z,96752.50
2023-05-19T22:19:33.441Z,96764.81
2023-05-19T22:21:36.742Z,96759.72
2023-05-19T22:23:41.147Z,96760.28
2023-05-19T22:25:44.029Z,96772.25
2023-05-19T22:27:47.127Z,96764.94
2023-05-19T22:29:52.330Z,96746.69
2023-05-19T22:31:55.665Z,96755.56
2023-05-19T22:33:58.894Z,96761.91
2023-05-19T22:36:02.052Z,96752.28
2023-05-19T22:38:04.970Z,96757.28
2023-05-19T22:40:10.181Z,96757.63
2023-05-19T22:42:13.089Z,96751.84
2023-05-19T22:44:16.305Z,96761.47
2023-05-19T22:46:19.434Z,96759.03
2023-05-19T22:48:22.290Z,96763.44
2023-05-19T22:50:25.220Z,96763.44
2023-05-19T22:52:28.316Z,96768.78
2023-05-19T22:54:31.453Z,96765.88
2023-05-19T22:56:35.916Z,96763.91
2023-05-19T22:58:39.100Z,96762.84
2023-05-19T23:00:41.809Z,96754.25
2023-05-19T23:02:44.991Z,96752.19
2023-05-19T23:04:48.013Z,96752.47
2023-05-19T23:06:51.265Z,96753.19
2023-05-19T23:09:00.729Z,96751.19
2023-05-19T23:11:03.709Z,96744.25
2023-05-19T23:13:08.176Z,96746.09
2023-05-19T23:15:12.297Z,96750.06
2023-05-19T23:17:15.294Z,96755.16
2023-05-19T23:19:20.273Z,96747.03
2023-05-19T23:21:23.713Z,96750.06
2023-05-19T23:23:27.693Z,96744.38
2023-05-19T23:25:32.463Z,96744.38
2023-05-19T23:27:36.223Z,96743.91
2023-05-19T23:29:40.652Z,96742.28
2023-05-19T23:31:43.620Z,96740.09
2023-05-19T23:33:46.600Z,96746.00
2023-05-19T23:35:49.921Z,96747.16
2023-05-19T23:37:54.417Z,96740.53
2023-05-19T23:39:57.422Z,96749.94
2023-05-19T23:42:00.298Z,96748.91
2023-05-19T23:44:03.143Z,96741.34
2023-05-19T23:46:07.468Z,96745.53
2023-05-19T23:48:11.168Z,96746.91
2023-05-19T23:50:14.093Z,96748.53
2023-05-19T23:52:17.192Z,96742.16
2023-05-19T23:54:20.098Z,96735.44
2023-05-19T23:56:23.156Z,96744.25
2023-05-19T23:58:26.122Z,96742.63
